Time,TemperatureF,DewpointF,PressureIn,WindDirection,WindDirectionDegrees,WindSpeedMPH,WindSpeedGustMPH,Humidity,HourlyPrecipIn,Conditions,Clouds,dailyrainin,SoftwareType,DateUTC
2013-08-19 00:00:00,59.4,57.0,30.09,ESE,118,0.0,0.0,90,0.00,,,0.00,weatherlink.com 1.10,2013-08-19 07:00:00,
2013-08-19 00:15:00,58.9,56.0,30.09,ESE,118,0.0,0.0,91,0.00,,,0.00,weatherlink.com 1.10,2013-08-19 07:15:00,
2013-08-19 00:30:00,58.4,56.0,30.09,ESE,118,0.0,0.0,92,0.00,,,0.00,weatherlink.com 1.10,2013-08-19 07:30:00,
2013-08-19 00:45:00,58.1,56.0,30.09,ESE,118,0.0,0.0,93,0.00,,,0.00,weatherlink.com 1.10,2013-08-19 07:45:00,
2013-08-19 01:00:00,57.7,56.0,30.09,ESE,118,0.0,0.0,93,0.00,,,0.00,weatherlink.com 1.10,2013-08-19 08:00:00,
2013-08-19 01:15:00,57.4,56.0,30.09,ESE,118,0.0,0.0,94,0.00,,,0.00,weatherlink.com 1.10,2013-08-19 08:15:00,
2013-08-19 01:30:00,57.2,56.0,30.09,ESE,118,0.0,0.0,94,0.00,,,0.00,weatherlink.com 1.10,2013-08-19 08:30:00,
2013-08-19 01:45:00,57.0,55.0,30.09,ESE,118,0.0,0.0,94,0.00,,,0.00,weatherlink.com 1.10,2013-08-19 08:45:00,
2013-08-19 02:00:00,56.8,55.0,30.08,ESE,118,0.0,0.0,94,0.00,,,0.00,weatherlink.com 1.10,2013-08-19 09:00:00,
2013-08-19 02:15:00,56.8,55.0,30.08,ESE,118,0.0,0.0,94,0.00,,,0.00,weatherlink.com 1.10,2013-08-19 09:15:00,
2013-08-19 02:30:00,56.8,55.0,30.08,ESE,118,0.0,0.0,95,0.00,,,0.00,weatherlink.com 1.10,2013-08-19 09:30:00,
2013-08-19 02:45:00,56.9,56.0,30.09,ESE,118,0.0,0.0,95,0.00,,,0.00,weatherlink.com 1.10,2013-08-19 09:45:00,
2013-08-19 03:00:00,56.9,56.0,30.09,ESE,118,0.0,0.0,95,0.00,,,0.00,weatherlink.com 1.10,2013-08-19 10:00:00,
2013-08-19 03:15:00,56.8,55.0,30.09,ESE,118,0.0,0.0,94,0.00,,,0.00,weatherlink.com 1.10,2013-08-19 10:15:00,
2013-08-19 03:30:00,56.7,55.0,30.09,ESE,118,0.0,0.0,94,0.00,,,0.00,weatherlink.com 1.10,2013-08-19 10:30:00,
2013-08-19 03:45:00,56.7,55.0,30.08,ESE,118,0.0,0.0,94,0.00,,,0.00,weatherlink.com 1.10,2013-08-19 10:45:00,
2013-08-19 04:00:00,56.6,55.0,30.08,ESE,118,0.0,0.0,95,0.00,,,0.00,weatherlink.com 1.10,2013-08-19 11:00:00,
2013-08-19 04:15:00,56.4,55.0,30.08,ESE,118,0.0,0.0,95,0.00,,,0.00,weatherlink.com 1.10,2013-08-19 11:15:00,
2013-08-19 04:30:00,56.3,55.0,30.09,ESE,118,0.0,0.0,95,0.00,,,0.00,weatherlink.com 1.10,2013-08-19 11:30:00,
2013-08-19 04:45:00,56.2,55.0,30.09,ESE,118,0.0,0.0,95,0.00,,,0.00,weatherlink.com 1.10,2013-08-19 11:45:00,
2013-08-19 05:00:00,56.0,55.0,30.09,ESE,118,0.0,0.0,95,0.00,,,0.00,weatherlink.com 1.10,2013-08-19 12:00:00,
2013-08-19 05:15:00,56.0,55.0,30.09,ESE,118,0.0,0.0,95,0.00,,,0.00,weatherlink.com 1.10,2013-08-19 12:15:00,
2013-08-19 05:30:00,55.7,54.0,30.09,ESE,118,0.0,0.0,95,0.00,,,0.00,weatherlink.com 1.10,2013-08-19 12:30:00,
2013-08-19 05:45:00,55.5,54.0,30.09,ESE,118,0.0,0.0,95,0.00,,,0.00,weatherlink.com 1.10,2013-08-19 12:45:00,
2013-08-19 06:00:00,55.3,54.0,30.09,ESE,118,0.0,0.0,96,0.00,,,0.00,weatherlink.com 1.10,2013-08-19 13:00:00,
2013-08-19 06:16:00,55.2,54.0,30.10,ESE,118,0.0,0.0,96,0.00,,,0.00,weatherlink.com 1.10,2013-08-19 13:16:00,
2013-08-19 06:31:00,55.2,54.0,30.10,ESE,118,0.0,0.0,96,0.00,,,0.00,weatherlink.com 1.10,2013-08-19 13:31:00,
2013-08-19 06:46:00,55.4,54.0,30.10,ESE,118,0.0,0.0,96,0.00,,,0.00,weatherlink.com 1.10,2013-08-19 13:46:00,
2013-08-19 07:01:00,55.7,55.0,30.10,ESE,118,0.0,0.0,97,0.00,,,0.00,weatherlink.com 1.10,2013-08-19 14:01:00,
2013-08-19 07:16:00,56.1,55.0,30.10,ESE,118,0.0,0.0,97,0.00,,,0.00,weatherlink.com 1.10,2013-08-19 14:16:00,
2013-08-19 07:31:00,56.6,56.0,30.10,ESE,118,0.0,0.0,97,0.00,,,0.00,weatherlink.com 1.10,2013-08-19 14:31:00,
2013-08-19 07:46:00,57.1,56.0,30.10,ESE,118,0.0,0.0,97,0.00,,,0.00,weatherlink.com 1.10,2013-08-19 14:46:00,
2013-08-19 08:01:00,57.6,57.0,30.10,ESE,105,0.0,0.0,96,0.00,,,0.00,weatherlink.com 1.10,2013-08-19 15:01:00,
2013-08-19 08:16:00,58.2,57.0,30.10,ESE,105,0.0,0.0,95,0.00,,,0.00,weatherlink.com 1.10,2013-08-19 15:16:00,
2013-08-19 08:31:00,59.0,57.0,30.10,East,82,0.0,1.0,93,0.00,,,0.00,weatherlink.com 1.10,2013-08-19 15:31:00,
2013-08-19 08:46:00,60.2,58.0,30.10,East,82,0.0,0.0,91,0.00,,,0.00,weatherlink.com 1.10,2013-08-19 15:46:00,
2013-08-19 09:01:00,61.6,58.0,30.10,East,82,0.0,0.0,88,0.00,,,0.00,weatherlink.com 1.10,2013-08-19 16:01:00,
2013-08-19 09:16:00,62.9,59.0,30.10,East,82,0.0,1.0,86,0.00,,,0.00,weatherlink.com 1.10,2013-08-19 16:16:00,
2013-08-19 09:31:00,63.5,59.0,30.11,East,82,0.0,0.0,84,0.00,,,0.00,weatherlink.com 1.10,2013-08-19 16:31:00,
2013-08-19 09:46:00,63.9,59.0,30.11,East,82,0.0,1.0,84,0.00,,,0.00,weatherlink.com 1.10,2013-08-19 16:46:00,
2013-08-19 10:01:00,64.1,59.0,30.11,East,82,0.0,1.0,84,0.00,,,0.00,weatherlink.com 1.10,2013-08-19 17:01:00,
2013-08-19 10:16:00,64.3,59.0,30.11,East,82,0.0,1.0,82,0.00,,,0.00,weatherlink.com 1.10,2013-08-19 17:16:00,
2013-08-19 10:34:00,64.7,59.0,30.11,East,82,0.0,1.0,81,0.00,,,0.00,weatherlink.com 1.10,2013-08-19 17:34:00,
2013-08-19 10:46:00,65.2,60.0,30.10,East,82,0.0,1.0,82,0.00,,,0.00,weatherlink.com 1.10,2013-08-19 17:46:00,
2013-08-19 11:01:00,66.4,59.0,30.11,East,82,1.0,1.0,77,0.00,,,0.00,weatherlink.com 1.10,2013-08-19 18:01:00,
2013-08-19 11:16:00,66.7,60.0,30.11,East,82,0.0,1.0,78,0.00,,,0.00,weatherlink.com 1.10,2013-08-19 18:16:00,
2013-08-19 11:31:00,66.7,60.0,30.11,East,82,0.0,0.0,78,0.00,,,0.00,weatherlink.com 1.10,2013-08-19 18:31:00,
2013-08-19 11:46:00,66.9,60.0,30.11,East,82,0.0,1.0,79,0.00,,,0.00,weatherlink.com 1.10,2013-08-19 18:46:00,
2013-08-19 12:01:00,67.2,60.0,30.11,East,83,0.0,0.0,77,0.00,,,0.00,weatherlink.com 1.10,2013-08-19 19:01:00,
2013-08-19 12:16:00,67.8,60.0,30.11,East,83,0.0,0.0,76,0.00,,,0.00,weatherlink.com 1.10,2013-08-19 19:16:00,
2013-08-19 12:31:00,68.3,60.0,30.11,East,83,0.0,2.0,75,0.00,,,0.00,weatherlink.com 1.10,2013-08-19 19:31:00,
2013-08-19 12:46:00,68.6,61.0,30.11,East,83,0.0,1.0,77,0.00,,,0.00,weatherlink.com 1.10,2013-08-19 19:46:00,
2013-08-19 13:01:00,69.5,61.0,30.11,East,83,0.0,1.0,75,0.00,,,0.00,weatherlink.com 1.10,2013-08-19 20:01:00,
2013-08-19 13:16:00,70.1,59.0,30.11,West,265,0.0,5.0,69,0.00,,,0.00,weatherlink.com 1.10,2013-08-19 20:16:00,
2013-08-19 13:31:00,70.1,61.0,30.11,East,95,1.0,3.0,74,0.00,,,0.00,weatherlink.com 1.10,2013-08-19 20:31:00,
2013-08-19 13:46:00,70.4,60.0,30.10,East,96,0.0,1.0,69,0.00,,,0.00,weatherlink.com 1.10,2013-08-19 20:46:00,
2013-08-19 14:01:00,71.2,60.0,30.10,SSE,150,0.0,3.0,68,0.00,,,0.00,weatherlink.com 1.10,2013-08-19 21:01:00,
2013-08-19 14:16:00,72.1,59.0,30.10,WNW,283,0.0,4.0,64,0.00,,,0.00,weatherlink.com 1.10,2013-08-19 21:16:00,
2013-08-19 14:32:00,73.3,61.0,30.09,ESE,123,0.0,4.0,65,0.00,,,0.00,weatherlink.com 1.10,2013-08-19 21:32:00,
2013-08-19 14:47:00,72.4,60.0,30.09,SW,234,1.0,5.0,65,0.00,,,0.00,weatherlink.com 1.10,2013-08-19 21:47:00,
2013-08-19 15:02:00,71.6,61.0,30.09,SSW,197,0.0,2.0,69,0.00,,,0.00,weatherlink.com 1.10,2013-08-19 22:02:00,
2013-08-19 15:17:00,71.8,60.0,30.09,WSW,254,0.0,4.0,67,0.00,,,0.00,weatherlink.com 1.10,2013-08-19 22:17:00,
2013-08-19 15:32:00,72.1,62.0,30.09,WSW,242,0.0,1.0,70,0.00,,,0.00,weatherlink.com 1.10,2013-08-19 22:32:00,
2013-08-19 15:47:00,72.0,63.0,30.09,WSW,242,0.0,2.0,73,0.00,,,0.00,weatherlink.com 1.10,2013-08-19 22:47:00,
2013-08-19 16:02:00,71.8,61.0,30.08,WSW,242,0.0,2.0,69,0.00,,,0.00,weatherlink.com 1.10,2013-08-19 23:02:00,
2013-08-19 16:17:00,71.1,62.0,30.08,WSW,242,0.0,1.0,72,0.00,,,0.00,weatherlink.com 1.10,2013-08-19 23:17:00,
2013-08-19 16:32:00,71.3,61.0,30.07,SSE,166,0.0,2.0,71,0.00,,,0.00,weatherlink.com 1.10,2013-08-19 23:32:00,
2013-08-19 16:47:00,71.3,63.0,30.07,SW,229,0.0,1.0,74,0.00,,,0.00,weatherlink.com 1.10,2013-08-19 23:47:00,
2013-08-19 17:02:00,70.3,62.0,30.07,SW,232,0.0,1.0,75,0.00,,,0.00,weatherlink.com 1.10,2013-08-20 00:02:00,
2013-08-19 17:17:00,70.2,62.0,30.07,SW,234,0.0,2.0,75,0.00,,,0.00,weatherlink.com 1.10,2013-08-20 00:17:00,
2013-08-19 17:32:00,70.4,62.0,30.06,SW,234,0.0,3.0,74,0.00,,,0.00,weatherlink.com 1.10,2013-08-20 00:32:00,
2013-08-19 17:47:00,70.8,61.0,30.06,SW,234,0.0,1.0,72,0.00,,,0.00,weatherlink.com 1.10,2013-08-20 00:47:00,
2013-08-19 18:02:00,70.8,62.0,30.05,SW,234,1.0,4.0,73,0.00,,,0.00,weatherlink.com 1.10,2013-08-20 01:02:00,
2013-08-19 18:17:00,68.3,60.0,30.05,SW,234,0.0,1.0,76,0.00,,,0.00,weatherlink.com 1.10,2013-08-20 01:17:00,
2013-08-19 18:32:00,67.0,60.0,30.05,SW,234,0.0,1.0,79,0.00,,,0.00,weatherlink.com 1.10,2013-08-20 01:32:00,
2013-08-19 18:47:00,66.5,60.0,30.05,SW,234,0.0,0.0,79,0.00,,,0.00,weatherlink.com 1.10,2013-08-20 01:47:00,
2013-08-19 19:02:00,66.0,60.0,30.05,SW,234,0.0,1.0,82,0.00,,,0.00,weatherlink.com 1.10,2013-08-20 02:02:00,
2013-08-19 19:17:00,65.5,60.0,30.05,SW,235,0.0,1.0,83,0.00,,,0.00,weatherlink.com 1.10,2013-08-20 02:17:00,
2013-08-19 19:32:00,64.9,60.0,30.05,SW,236,0.0,1.0,84,0.00,,,0.00,weatherlink.com 1.10,2013-08-20 02:32:00,
2013-08-19 19:47:00,64.4,59.0,30.06,WSW,239,0.0,1.0,83,0.00,,,0.00,weatherlink.com 1.10,2013-08-20 02:47:00,
2013-08-19 20:02:00,64.2,59.0,30.07,WSW,239,0.0,1.0,84,0.00,,,0.00,weatherlink.com 1.10,2013-08-20 03:02:00,
2013-08-19 20:17:00,63.8,59.0,30.07,WSW,239,0.0,1.0,85,0.00,,,0.00,weatherlink.com 1.10,2013-08-20 03:17:00,
2013-08-19 20:32:00,63.3,59.0,30.08,WSW,239,0.0,3.0,87,0.00,,,0.00,weatherlink.com 1.10,2013-08-20 03:32:00,
2013-08-19 20:47:00,63.1,59.0,30.08,WSW,239,0.0,2.0,87,0.00,,,0.00,weatherlink.com 1.10,2013-08-20 03:47:00,
2013-08-19 21:02:00,63.1,58.0,30.09,SE,137,0.0,3.0,84,0.00,,,0.00,weatherlink.com 1.10,2013-08-20 04:02:00,
2013-08-19 21:17:00,62.9,58.0,30.10,East,79,0.0,3.0,84,0.00,,,0.00,weatherlink.com 1.10,2013-08-20 04:17:00,
2013-08-19 21:32:00,62.3,57.0,30.10,East,79,0.0,1.0,82,0.00,,,0.00,weatherlink.com 1.10,2013-08-20 04:32:00,
2013-08-19 21:47:00,61.7,57.0,30.10,East,79,0.0,0.0,84,0.00,,,0.00,weatherlink.com 1.10,2013-08-20 04:47:00,
2013-08-19 22:02:00,61.3,56.0,30.10,East,80,0.0,0.0,83,0.00,,,0.00,weatherlink.com 1.10,2013-08-20 05:02:00,
2013-08-19 22:17:00,60.9,56.0,30.11,East,80,0.0,0.0,85,0.00,,,0.00,weatherlink.com 1.10,2013-08-20 05:17:00,
2013-08-19 22:32:00,60.6,56.0,30.11,East,80,0.0,0.0,84,0.00,,,0.00,weatherlink.com 1.10,2013-08-20 05:32:00,
2013-08-19 22:47:00,60.2,55.0,30.11,East,80,0.0,0.0,84,0.00,,,0.00,weatherlink.com 1.10,2013-08-20 05:47:00,
2013-08-19 23:02:00,59.7,54.0,30.11,East,80,0.0,0.0,81,0.00,,,0.00,weatherlink.com 1.10,2013-08-20 06:02:00,
2013-08-19 23:17:00,59.5,54.0,30.12,East,80,0.0,0.0,83,0.00,,,0.00,weatherlink.com 1.10,2013-08-20 06:17:00,
2013-08-19 23:32:00,59.3,54.0,30.12,East,80,0.0,0.0,82,0.00,,,0.00,weatherlink.com 1.10,2013-08-20 06:32:00,
2013-08-19 23:47:00,59.1,54.0,30.12,East,80,0.0,0.0,83,0.00,,,0.00,weatherlink.com 1.10,2013-08-20 06:47:00,